sensor_id;sensor_type;location;lat;lon;timestamp;P1;durP1;ratioP1;P2;durP2;ratioP2
18387;SDS011;9320;50.256;19.026;2023-06-14T00:02:21;14.60;;;11.00;;
18387;SDS011;9320;50.256;19.026;2023-06-14T00:04:49;18.97;;;11.17;;
18387;SDS011;9320;50.256;19.026;2023-06-14T00:07:20;14.83;;;11.07;;
18387;SDS011;9320;50.256;19.026;2023-06-14T00:10:00;15.93;;;10.83;;
18387;SDS011;9320;50.256;19.026;2023-06-14T00:12:28;14.93;;;11.07;;
18387;SDS011;9320;50.256;19.026;2023-06-14T00:14:56;16.37;;;11.33;;
18387;SDS011;9320;50.256;19.026;2023-06-14T00:17:26;14.17;;;10.63;;
18387;SDS011;9320;50.256;19.026;2023-06-14T00:19:56;17.73;;;11.57;;
18387;SDS011;9320;50.256;19.026;2023-06-14T00:22:24;12.87;;;10.97;;
18387;SDS011;9320;50.256;19.026;2023-06-14T00:24:55;17.53;;;11.43;;
18387;SDS011;9320;50.256;19.026;2023-06-14T00:27:23;13.53;;;11.03;;
18387;SDS011;9320;50.256;19.026;2023-06-14T00:29:51;17.20;;;12.00;;
18387;SDS011;9320;50.256;19.026;2023-06-14T00:32:19;15.23;;;10.67;;
18387;SDS011;9320;50.256;19.026;2023-06-14T00:34:53;14.93;;;10.37;;
18387;SDS011;9320;50.256;19.026;2023-06-14T00:37:21;14.47;;;10.90;;
18387;SDS011;9320;50.256;19.026;2023-06-14T00:39:49;15.10;;;11.07;;
18387;SDS011;9320;50.256;19.026;2023-06-14T00:42:23;16.67;;;11.67;;
18387;SDS011;9320;50.256;19.026;2023-06-14T00:44:52;15.57;;;11.43;;
18387;SDS011;9320;50.256;19.026;2023-06-14T00:47:21;15.13;;;10.90;;
18387;SDS011;9320;50.256;19.026;2023-06-14T00:49:50;20.63;;;12.80;;
18387;SDS011;9320;50.256;19.026;2023-06-14T00:52:20;16.83;;;12.13;;
18387;SDS011;9320;50.256;19.026;2023-06-14T00:54:50;15.83;;;11.93;;
18387;SDS011;9320;50.256;19.026;2023-06-14T00:57:18;20.53;;;13.10;;
18387;SDS011;9320;50.256;19.026;2023-06-14T00:59:48;19.03;;;12.00;;
18387;SDS011;9320;50.256;19.026;2023-06-14T01:02:17;18.40;;;12.50;;
18387;SDS011;9320;50.256;19.026;2023-06-14T01:04:46;20.30;;;13.20;;
18387;SDS011;9320;50.256;19.026;2023-06-14T01:07:18;15.87;;;12.47;;
18387;SDS011;9320;50.256;19.026;2023-06-14T01:09:58;17.43;;;12.87;;
18387;SDS011;9320;50.256;19.026;2023-06-14T01:12:35;20.27;;;13.40;;
18387;SDS011;9320;50.256;19.026;2023-06-14T01:15:11;18.87;;;12.73;;
18387;SDS011;9320;50.256;19.026;2023-06-14T01:17:41;17.33;;;12.23;;
18387;SDS011;9320;50.256;19.026;2023-06-14T01:20:12;17.37;;;13.20;;
18387;SDS011;9320;50.256;19.026;2023-06-14T01:22:50;17.73;;;12.83;;
18387;SDS011;9320;50.256;19.026;2023-06-14T01:25:19;21.27;;;13.07;;
18387;SDS011;9320;50.256;19.026;2023-06-14T01:27:49;16.50;;;11.80;;
18387;SDS011;9320;50.256;19.026;2023-06-14T01:30:21;16.60;;;12.50;;
18387;SDS011;9320;50.256;19.026;2023-06-14T01:32:51;15.23;;;12.23;;
18387;SDS011;9320;50.256;19.026;2023-06-14T01:35:21;17.80;;;12.00;;
18387;SDS011;9320;50.256;19.026;2023-06-14T01:37:50;17.10;;;12.30;;
18387;SDS011;9320;50.256;19.026;2023-06-14T01:40:19;16.90;;;12.30;;
18387;SDS011;9320;50.256;19.026;2023-06-14T01:42:50;18.10;;;12.60;;
18387;SDS011;9320;50.256;19.026;2023-06-14T01:45:19;15.50;;;11.77;;
18387;SDS011;9320;50.256;19.026;2023-06-14T01:47:49;17.57;;;12.23;;
18387;SDS011;9320;50.256;19.026;2023-06-14T01:50:18;17.73;;;12.03;;
18387;SDS011;9320;50.256;19.026;2023-06-14T01:52:47;23.47;;;13.13;;
18387;SDS011;9320;50.256;19.026;2023-06-14T01:55:16;19.57;;;12.67;;
18387;SDS011;9320;50.256;19.026;2023-06-14T01:57:45;22.33;;;14.07;;
18387;SDS011;9320;50.256;19.026;2023-06-14T02:00:13;20.47;;;13.60;;
18387;SDS011;9320;50.256;19.026;2023-06-14T02:02:42;26.80;;;13.73;;
18387;SDS011;9320;50.256;19.026;2023-06-14T02:05:11;20.30;;;13.27;;
18387;SDS011;9320;50.256;19.026;2023-06-14T02:07:39;20.23;;;12.03;;
18387;SDS011;9320;50.256;19.026;2023-06-14T02:10:07;23.97;;;13.70;;
18387;SDS011;9320;50.256;19.026;2023-06-14T02:12:37;22.07;;;13.23;;
18387;SDS011;9320;50.256;19.026;2023-06-14T02:15:05;22.53;;;13.87;;
18387;SDS011;9320;50.256;19.026;2023-06-14T02:17:34;23.70;;;14.23;;
18387;SDS011;9320;50.256;19.026;2023-06-14T02:20:02;23.77;;;13.43;;
18387;SDS011;9320;50.256;19.026;2023-06-14T02:22:32;21.37;;;13.37;;
18387;SDS011;9320;50.256;19.026;2023-06-14T02:25:00;20.37;;;12.83;;
18387;SDS011;9320;50.256;19.026;2023-06-14T02:27:28;22.10;;;13.50;;
18387;SDS011;9320;50.256;19.026;2023-06-14T02:29:57;23.70;;;14.23;;
18387;SDS011;9320;50.256;19.026;2023-06-14T02:32:25;19.90;;;13.13;;
18387;SDS011;9320;50.256;19.026;2023-06-14T02:34:54;23.57;;;14.47;;
18387;SDS011;9320;50.256;19.026;2023-06-14T02:37:23;20.70;;;13.73;;
18387;SDS011;9320;50.256;19.026;2023-06-14T02:39:51;19.97;;;13.43;;
18387;SDS011;9320;50.256;19.026;2023-06-14T02:42:19;22.07;;;12.87;;
18387;SDS011;9320;50.256;19.026;2023-06-14T02:44:47;19.60;;;13.43;;
18387;SDS011;9320;50.256;19.026;2023-06-14T02:47:19;20.87;;;14.03;;
18387;SDS011;9320;50.256;19.026;2023-06-14T02:49:47;24.13;;;14.27;;
18387;SDS011;9320;50.256;19.026;2023-06-14T02:52:15;20.27;;;12.70;;
18387;SDS011;9320;50.256;19.026;2023-06-14T02:54:43;23.27;;;13.87;;
18387;SDS011;9320;50.256;19.026;2023-06-14T02:57:11;23.90;;;13.97;;
18387;SDS011;9320;50.256;19.026;2023-06-14T02:59:39;20.40;;;13.00;;
18387;SDS011;9320;50.256;19.026;2023-06-14T03:02:07;22.40;;;13.73;;
18387;SDS011;9320;50.256;19.026;2023-06-14T03:04:36;19.70;;;13.13;;
18387;SDS011;9320;50.256;19.026;2023-06-14T03:07:04;20.87;;;13.37;;
18387;SDS011;9320;50.256;19.026;2023-06-14T03:09:35;20.27;;;12.80;;
18387;SDS011;9320;50.256;19.026;2023-06-14T03:12:04;20.73;;;13.13;;
18387;SDS011;9320;50.256;19.026;2023-06-14T03:14:34;20.80;;;12.73;;
18387;SDS011;9320;50.256;19.026;2023-06-14T03:17:02;18.90;;;13.27;;
18387;SDS011;9320;50.256;19.026;2023-06-14T03:19:31;17.20;;;12.63;;
18387;SDS011;9320;50.256;19.026;2023-06-14T03:22:00;20.67;;;13.77;;
18387;SDS011;9320;50.256;19.026;2023-06-14T03:24:28;20.77;;;13.00;;
18387;SDS011;9320;50.256;19.026;2023-06-14T03:27:03;17.90;;;13.03;;
18387;SDS011;9320;50.256;19.026;2023-06-14T03:29:31;21.13;;;13.27;;
18387;SDS011;9320;50.256;19.026;2023-06-14T03:32:00;15.40;;;12.27;;
18387;SDS011;9320;50.256;19.026;2023-06-14T03:34:29;20.83;;;12.60;;
18387;SDS011;9320;50.256;19.026;2023-06-14T03:36:57;18.97;;;13.00;;
18387;SDS011;9320;50.256;19.026;2023-06-14T03:39:26;18.83;;;12.70;;
18387;SDS011;9320;50.256;19.026;2023-06-14T03:41:54;15.65;;;12.68;;
18387;SDS011;9320;50.256;19.026;2023-06-14T03:44:22;18.00;;;13.20;;
18387;SDS011;9320;50.256;19.026;2023-06-14T03:46:50;17.60;;;12.77;;
18387;SDS011;9320;50.256;19.026;2023-06-14T03:49:19;19.48;;;12.95;;
18387;SDS011;9320;50.256;19.026;2023-06-14T03:51:47;18.37;;;13.07;;
18387;SDS011;9320;50.256;19.026;2023-06-14T03:54:18;16.87;;;12.57;;
18387;SDS011;9320;50.256;19.026;2023-06-14T03:57:07;18.42;;;12.60;;
18387;SDS011;9320;50.256;19.026;2023-06-14T03:59:35;19.90;;;13.13;;
18387;SDS011;9320;50.256;19.026;2023-06-14T04:02:04;14.50;;;12.15;;
18387;SDS011;9320;50.256;19.026;2023-06-14T04:04:32;17.75;;;12.25;;
18387;SDS011;9320;50.256;19.026;2023-06-14T04:07:01;21.92;;;13.52;;
18387;SDS011;9320;50.256;19.026;2023-06-14T04:09:29;20.50;;;13.87;;
18387;SDS011;9320;50.256;19.026;2023-06-14T04:11:58;17.43;;;13.17;;
18387;SDS011;9320;50.256;19.026;2023-06-14T04:14:27;16.47;;;11.90;;
18387;SDS011;9320;50.256;19.026;2023-06-14T04:16:56;20.97;;;13.13;;
18387;SDS011;9320;50.256;19.026;2023-06-14T04:19:24;18.73;;;12.70;;
18387;SDS011;9320;50.256;19.026;2023-06-14T04:21:52;21.25;;;12.80;;
18387;SDS011;9320;50.256;19.026;2023-06-14T04:24:21;17.75;;;12.48;;
18387;SDS011;9320;50.256;19.026;2023-06-14T04:26:49;22.55;;;12.30;;
18387;SDS011;9320;50.256;19.026;2023-06-14T04:29:18;18.48;;;12.27;;
18387;SDS011;9320;50.256;19.026;2023-06-14T04:31:48;21.92;;;13.38;;
18387;SDS011;9320;50.256;19.026;2023-06-14T04:34:18;23.00;;;13.95;;
18387;SDS011;9320;50.256;19.026;2023-06-14T04:36:48;22.38;;;13.15;;
18387;SDS011;9320;50.256;19.026;2023-06-14T04:39:19;20.00;;;13.48;;
18387;SDS011;9320;50.256;19.026;2023-06-14T04:41:48;20.60;;;13.52;;
18387;SDS011;9320;50.256;19.026;2023-06-14T04:44:18;21.37;;;14.07;;
18387;SDS011;9320;50.256;19.026;2023-06-14T04:46:47;22.30;;;14.05;;
18387;SDS011;9320;50.256;19.026;2023-06-14T04:49:16;21.95;;;14.65;;
18387;SDS011;9320;50.256;19.026;2023-06-14T04:51:45;21.63;;;14.48;;
18387;SDS011;9320;50.256;19.026;2023-06-14T04:54:17;23.33;;;15.00;;
18387;SDS011;9320;50.256;19.026;2023-06-14T04:56:46;21.10;;;13.80;;
18387;SDS011;9320;50.256;19.026;2023-06-14T04:59:14;18.17;;;14.05;;
18387;SDS011;9320;50.256;19.026;2023-06-14T05:01:43;18.77;;;13.55;;
18387;SDS011;9320;50.256;19.026;2023-06-14T05:04:16;22.60;;;13.87;;
18387;SDS011;9320;50.256;19.026;2023-06-14T05:06:44;20.40;;;14.30;;
18387;SDS011;9320;50.256;19.026;2023-06-14T05:09:14;17.55;;;12.82;;
18387;SDS011;9320;50.256;19.026;2023-06-14T05:11:43;19.42;;;13.18;;
18387;SDS011;9320;50.256;19.026;2023-06-14T05:14:11;22.55;;;13.13;;
18387;SDS011;9320;50.256;19.026;2023-06-14T05:16:40;20.92;;;13.82;;
18387;SDS011;9320;50.256;19.026;2023-06-14T05:19:09;22.98;;;13.88;;
18387;SDS011;9320;50.256;19.026;2023-06-14T05:21:38;26.23;;;14.30;;
18387;SDS011;9320;50.256;19.026;2023-06-14T05:24:09;23.50;;;13.93;;
18387;SDS011;9320;50.256;19.026;2023-06-14T05:26:37;22.73;;;15.45;;
18387;SDS011;9320;50.256;19.026;2023-06-14T05:29:06;22.53;;;14.57;;
18387;SDS011;9320;50.256;19.026;2023-06-14T05:31:34;25.23;;;15.35;;
18387;SDS011;9320;50.256;19.026;2023-06-14T05:34:02;20.95;;;14.23;;
18387;SDS011;9320;50.256;19.026;2023-06-14T05:36:30;27.93;;;15.03;;
18387;SDS011;9320;50.256;19.026;2023-06-14T05:38:59;19.58;;;14.10;;
18387;SDS011;9320;50.256;19.026;2023-06-14T05:41:29;25.38;;;14.82;;
18387;SDS011;9320;50.256;19.026;2023-06-14T05:43:57;21.30;;;15.63;;
18387;SDS011;9320;50.256;19.026;2023-06-14T05:46:26;23.05;;;15.23;;
18387;SDS011;9320;50.256;19.026;2023-06-14T05:48:55;27.63;;;16.30;;
18387;SDS011;9320;50.256;19.026;2023-06-14T05:51:23;22.63;;;16.48;;
18387;SDS011;9320;50.256;19.026;2023-06-14T05:53:53;26.63;;;16.30;;
18387;SDS011;9320;50.256;19.026;2023-06-14T05:56:22;23.52;;;17.15;;
18387;SDS011;9320;50.256;19.026;2023-06-14T05:58:50;26.70;;;17.23;;
18387;SDS011;9320;50.256;19.026;2023-06-14T06:01:18;30.83;;;17.13;;
18387;SDS011;9320;50.256;19.026;2023-06-14T06:03:46;26.58;;;17.70;;
18387;SDS011;9320;50.256;19.026;2023-06-14T06:06:14;35.35;;;18.27;;
18387;SDS011;9320;50.256;19.026;2023-06-14T06:08:43;29.83;;;19.00;;
18387;SDS011;9320;50.256;19.026;2023-06-14T06:11:11;28.90;;;19.97;;
18387;SDS011;9320;50.256;19.026;2023-06-14T06:13:40;28.48;;;20.83;;
18387;SDS011;9320;50.256;19.026;2023-06-14T06:16:08;30.83;;;22.25;;
18387;SDS011;9320;50.256;19.026;2023-06-14T06:18:36;34.30;;;23.90;;
18387;SDS011;9320;50.256;19.026;2023-06-14T06:21:05;30.67;;;21.30;;
18387;SDS011;9320;50.256;19.026;2023-06-14T06:23:33;31.20;;;22.02;;
18387;SDS011;9320;50.256;19.026;2023-06-14T06:26:02;31.13;;;19.60;;
18387;SDS011;9320;50.256;19.026;2023-06-14T06:28:30;29.05;;;19.98;;
18387;SDS011;9320;50.256;19.026;2023-06-14T06:31:00;25.25;;;18.63;;
18387;SDS011;9320;50.256;19.026;2023-06-14T06:33:30;29.05;;;18.13;;
18387;SDS011;9320;50.256;19.026;2023-06-14T06:35:58;24.45;;;16.63;;
18387;SDS011;9320;50.256;19.026;2023-06-14T06:38:26;23.48;;;16.42;;
18387;SDS011;9320;50.256;19.026;2023-06-14T06:40:54;23.73;;;16.05;;
18387;SDS011;9320;50.256;19.026;2023-06-14T06:43:23;21.35;;;16.63;;
18387;SDS011;9320;50.256;19.026;2023-06-14T06:45:51;26.00;;;17.40;;
18387;SDS011;9320;50.256;19.026;2023-06-14T06:48:21;24.00;;;17.50;;
18387;SDS011;9320;50.256;19.026;2023-06-14T06:50:49;23.08;;;17.70;;
18387;SDS011;9320;50.256;19.026;2023-06-14T06:53:17;22.45;;;16.92;;
18387;SDS011;9320;50.256;19.026;2023-06-14T06:55:55;23.98;;;17.77;;
18387;SDS011;9320;50.256;19.026;2023-06-14T06:58:24;22.92;;;17.45;;
18387;SDS011;9320;50.256;19.026;2023-06-14T07:00:52;23.65;;;16.83;;
18387;SDS011;9320;50.256;19.026;2023-06-14T07:03:21;22.85;;;17.50;;
18387;SDS011;9320;50.256;19.026;2023-06-14T07:05:49;21.50;;;15.07;;
18387;SDS011;9320;50.256;19.026;2023-06-14T07:08:17;20.70;;;15.18;;
18387;SDS011;9320;50.256;19.026;2023-06-14T07:10:46;18.13;;;13.63;;
18387;SDS011;9320;50.256;19.026;2023-06-14T07:13:14;16.95;;;12.18;;
18387;SDS011;9320;50.256;19.026;2023-06-14T07:15:42;12.10;;;10.73;;
18387;SDS011;9320;50.256;19.026;2023-06-14T07:18:10;13.30;;;11.05;;
18387;SDS011;9320;50.256;19.026;2023-06-14T07:20:43;15.00;;;13.15;;
18387;SDS011;9320;50.256;19.026;2023-06-14T07:23:11;17.90;;;14.63;;
18387;SDS011;9320;50.256;19.026;2023-06-14T07:25:39;14.15;;;12.63;;
18387;SDS011;9320;50.256;19.026;2023-06-14T07:28:07;15.48;;;11.20;;
18387;SDS011;9320;50.256;19.026;2023-06-14T07:30:35;20.65;;;14.27;;
18387;SDS011;9320;50.256;19.026;2023-06-14T07:33:03;17.92;;;14.23;;
18387;SDS011;9320;50.256;19.026;2023-06-14T07:35:32;20.63;;;12.30;;
18387;SDS011;9320;50.256;19.026;2023-06-14T07:38:01;23.75;;;11.60;;
18387;SDS011;9320;50.256;19.026;2023-06-14T07:40:29;14.23;;;11.82;;
18387;SDS011;9320;50.256;19.026;2023-06-14T07:42:57;14.27;;;12.45;;
18387;SDS011;9320;50.256;19.026;2023-06-14T07:45:25;11.38;;;9.15;;
18387;SDS011;9320;50.256;19.026;2023-06-14T07:47:53;10.25;;;8.95;;
18387;SDS011;9320;50.256;19.026;2023-06-14T07:50:23;10.90;;;9.80;;
18387;SDS011;9320;50.256;19.026;2023-06-14T07:52:51;12.00;;;10.70;;
18387;SDS011;9320;50.256;19.026;2023-06-14T07:55:20;15.73;;;11.35;;
18387;SDS011;9320;50.256;19.026;2023-06-14T07:57:48;12.00;;;9.20;;
18387;SDS011;9320;50.256;19.026;2023-06-14T08:00:17;9.13;;;8.23;;
18387;SDS011;9320;50.256;19.026;2023-06-14T08:02:46;10.93;;;9.43;;
18387;SDS011;9320;50.256;19.026;2023-06-14T08:05:14;12.10;;;8.35;;
18387;SDS011;9320;50.256;19.026;2023-06-14T08:07:43;16.70;;;10.00;;
18387;SDS011;9320;50.256;19.026;2023-06-14T08:10:11;15.13;;;10.02;;
18387;SDS011;9320;50.256;19.026;2023-06-14T08:12:41;16.98;;;11.60;;
18387;SDS011;9320;50.256;19.026;2023-06-14T08:15:09;11.40;;;10.20;;
18387;SDS011;9320;50.256;19.026;2023-06-14T08:17:40;14.95;;;10.30;;
18387;SDS011;9320;50.256;19.026;2023-06-14T08:20:10;17.17;;;12.43;;
18387;SDS011;9320;50.256;19.026;2023-06-14T08:22:38;17.70;;;11.68;;
18387;SDS011;9320;50.256;19.026;2023-06-14T08:25:08;14.93;;;10.37;;
18387;SDS011;9320;50.256;19.026;2023-06-14T08:27:37;16.25;;;10.25;;
18387;SDS011;9320;50.256;19.026;2023-06-14T08:30:07;12.60;;;9.85;;
18387;SDS011;9320;50.256;19.026;2023-06-14T08:32:36;12.27;;;9.80;;
18387;SDS011;9320;50.256;19.026;2023-06-14T08:35:04;11.98;;;9.40;;
18387;SDS011;9320;50.256;19.026;2023-06-14T08:37:35;10.57;;;9.48;;
18387;SDS011;9320;50.256;19.026;2023-06-14T08:40:07;11.18;;;9.00;;
18387;SDS011;9320;50.256;19.026;2023-06-14T08:42:45;10.27;;;9.30;;
18387;SDS011;9320;50.256;19.026;2023-06-14T08:45:18;9.35;;;8.38;;
18387;SDS011;9320;50.256;19.026;2023-06-14T08:47:51;10.68;;;8.98;;
18387;SDS011;9320;50.256;19.026;2023-06-14T08:50:25;13.00;;;8.63;;
18387;SDS011;9320;50.256;19.026;2023-06-14T08:52:57;12.38;;;8.73;;
18387;SDS011;9320;50.256;19.026;2023-06-14T08:55:28;9.30;;;7.63;;
18387;SDS011;9320;50.256;19.026;2023-06-14T08:58:02;14.90;;;8.68;;
18387;SDS011;9320;50.256;19.026;2023-06-14T09:00:32;11.57;;;8.48;;
18387;SDS011;9320;50.256;19.026;2023-06-14T09:03:01;10.75;;;8.73;;
18387;SDS011;9320;50.256;19.026;2023-06-14T09:05:29;12.55;;;9.40;;
18387;SDS011;9320;50.256;19.026;2023-06-14T09:07:58;9.95;;;8.93;;
18387;SDS011;9320;50.256;19.026;2023-06-14T09:10:30;11.50;;;8.80;;
18387;SDS011;9320;50.256;19.026;2023-06-14T09:13:01;9.45;;;8.52;;
18387;SDS011;9320;50.256;19.026;2023-06-14T09:15:29;9.00;;;8.20;;
18387;SDS011;9320;50.256;19.026;2023-06-14T09:17:59;9.30;;;8.38;;
18387;SDS011;9320;50.256;19.026;2023-06-14T09:20:29;9.48;;;7.93;;
18387;SDS011;9320;50.256;19.026;2023-06-14T09:22:58;9.23;;;8.32;;
18387;SDS011;9320;50.256;19.026;2023-06-14T09:25:27;8.43;;;7.72;;
18387;SDS011;9320;50.256;19.026;2023-06-14T09:28:06;10.05;;;8.30;;
18387;SDS011;9320;50.256;19.026;2023-06-14T09:30:36;9.57;;;8.50;;
18387;SDS011;9320;50.256;19.026;2023-06-14T09:33:06;9.35;;;8.45;;
18387;SDS011;9320;50.256;19.026;2023-06-14T09:35:34;11.68;;;10.32;;
18387;SDS011;9320;50.256;19.026;2023-06-14T09:38:03;12.50;;;11.20;;
18387;SDS011;9320;50.256;19.026;2023-06-14T09:40:34;14.13;;;11.25;;
18387;SDS011;9320;50.256;19.026;2023-06-14T09:43:06;12.57;;;10.48;;
18387;SDS011;9320;50.256;19.026;2023-06-14T09:45:36;11.60;;;10.40;;
18387;SDS011;9320;50.256;19.026;2023-06-14T09:48:07;11.57;;;10.38;;
18387;SDS011;9320;50.256;19.026;2023-06-14T09:50:36;10.65;;;9.65;;
18387;SDS011;9320;50.256;19.026;2023-06-14T09:53:06;10.23;;;9.00;;
18387;SDS011;9320;50.256;19.026;2023-06-14T09:55:36;13.75;;;8.32;;
18387;SDS011;9320;50.256;19.026;2023-06-14T09:58:06;9.40;;;8.50;;
18387;SDS011;9320;50.256;19.026;2023-06-14T10:00:35;9.93;;;8.93;;
18387;SDS011;9320;50.256;19.026;2023-06-14T10:03:05;9.55;;;8.60;;
18387;SDS011;9320;50.256;19.026;2023-06-14T10:05:39;9.68;;;8.25;;
18387;SDS011;9320;50.256;19.026;2023-06-14T10:08:10;9.32;;;8.32;;
18387;SDS011;9320;50.256;19.026;2023-06-14T10:10:43;8.85;;;8.05;;
18387;SDS011;9320;50.256;19.026;2023-06-14T10:13:12;9.43;;;8.23;;
18387;SDS011;9320;50.256;19.026;2023-06-14T10:15:46;9.70;;;8.80;;
18387;SDS011;9320;50.256;19.026;2023-06-14T10:18:24;9.40;;;8.50;;
18387;SDS011;9320;50.256;19.026;2023-06-14T10:21:13;9.93;;;8.93;;
18387;SDS011;9320;50.256;19.026;2023-06-14T10:23:46;8.57;;;7.80;;
18387;SDS011;9320;50.256;19.026;2023-06-14T10:26:19;8.40;;;7.60;;
18387;SDS011;9320;50.256;19.026;2023-06-14T10:28:58;9.73;;;8.68;;
18387;SDS011;9320;50.256;19.026;2023-06-14T10:31:40;8.93;;;8.13;;
18387;SDS011;9320;50.256;19.026;2023-06-14T10:34:10;8.63;;;7.82;;
18387;SDS011;9320;50.256;19.026;2023-06-14T10:36:40;9.32;;;8.45;;
18387;SDS011;9320;50.256;19.026;2023-06-14T10:39:10;9.20;;;8.02;;
18387;SDS011;9320;50.256;19.026;2023-06-14T10:41:50;9.07;;;8.25;;
18387;SDS011;9320;50.256;19.026;2023-06-14T10:44:32;8.32;;;7.50;;
18387;SDS011;9320;50.256;19.026;2023-06-14T10:47:19;9.00;;;8.20;;
18387;SDS011;9320;50.256;19.026;2023-06-14T10:49:52;8.93;;;8.13;;
18387;SDS011;9320;50.256;19.026;2023-06-14T10:52:23;9.35;;;8.45;;
18387;SDS011;9320;50.256;19.026;2023-06-14T10:55:01;9.65;;;8.55;;
18387;SDS011;9320;50.256;19.026;2023-06-14T10:57:35;9.43;;;8.10;;
18387;SDS011;9320;50.256;19.026;2023-06-14T11:00:18;9.10;;;8.23;;
18387;SDS011;9320;50.256;19.026;2023-06-14T11:02:59;9.35;;;8.45;;
18387;SDS011;9320;50.256;19.026;2023-06-14T11:05:53;9.63;;;8.63;;
18387;SDS011;9320;50.256;19.026;2023-06-14T11:11:19;9.48;;;8.57;;
18387;SDS011;9320;50.256;19.026;2023-06-14T11:13:50;9.50;;;8.60;;
18387;SDS011;9320;50.256;19.026;2023-06-14T11:16:19;9.65;;;8.63;;
18387;SDS011;9320;50.256;19.026;2023-06-14T11:18:47;9.73;;;8.80;;
18387;SDS011;9320;50.256;19.026;2023-06-14T11:21:18;12.10;;;10.00;;
18387;SDS011;9320;50.256;19.026;2023-06-14T11:23:50;10.65;;;9.52;;
18387;SDS011;9320;50.256;19.026;2023-06-14T11:26:25;12.93;;;9.45;;
18387;SDS011;9320;50.256;19.026;2023-06-14T11:28:55;9.45;;;8.52;;
18387;SDS011;9320;50.256;19.026;2023-06-14T11:31:24;10.75;;;8.52;;
18387;SDS011;9320;50.256;19.026;2023-06-14T11:33:53;10.07;;;8.40;;
18387;SDS011;9320;50.256;19.026;2023-06-14T11:36:24;10.32;;;9.07;;
18387;SDS011;9320;50.256;19.026;2023-06-14T11:38:59;11.13;;;9.07;;
18387;SDS011;9320;50.256;19.026;2023-06-14T11:41:32;13.18;;;9.40;;
18387;SDS011;9320;50.256;19.026;2023-06-14T11:44:01;12.10;;;9.35;;
18387;SDS011;9320;50.256;19.026;2023-06-14T11:46:30;13.13;;;9.18;;
18387;SDS011;9320;50.256;19.026;2023-06-14T11:48:58;11.82;;;8.80;;
18387;SDS011;9320;50.256;19.026;2023-06-14T11:51:30;11.95;;;8.27;;
18387;SDS011;9320;50.256;19.026;2023-06-14T11:54:00;13.18;;;8.88;;
18387;SDS011;9320;50.256;19.026;2023-06-14T11:56:29;11.93;;;8.77;;
18387;SDS011;9320;50.256;19.026;2023-06-14T11:58:58;11.88;;;9.00;;
18387;SDS011;9320;50.256;19.026;2023-06-14T12:01:27;10.13;;;8.30;;
18387;SDS011;9320;50.256;19.026;2023-06-14T12:03:57;11.90;;;7.97;;
18387;SDS011;9320;50.256;19.026;2023-06-14T12:06:28;9.30;;;8.20;;
18387;SDS011;9320;50.256;19.026;2023-06-14T12:09:02;11.23;;;7.68;;
18387;SDS011;9320;50.256;19.026;2023-06-14T12:11:32;10.88;;;7.10;;
18387;SDS011;9320;50.256;19.026;2023-06-14T12:14:03;9.57;;;7.85;;
18387;SDS011;9320;50.256;19.026;2023-06-14T12:16:32;10.45;;;7.88;;
18387;SDS011;9320;50.256;19.026;2023-06-14T12:19:08;11.20;;;7.30;;
18387;SDS011;9320;50.256;19.026;2023-06-14T12:21:39;9.95;;;7.38;;
18387;SDS011;9320;50.256;19.026;2023-06-14T12:24:09;9.60;;;7.13;;
18387;SDS011;9320;50.256;19.026;2023-06-14T12:26:40;11.63;;;7.00;;
18387;SDS011;9320;50.256;19.026;2023-06-14T12:29:08;10.10;;;7.50;;
18387;SDS011;9320;50.256;19.026;2023-06-14T12:31:39;7.40;;;6.55;;
18387;SDS011;9320;50.256;19.026;2023-06-14T12:34:07;7.20;;;6.25;;
18387;SDS011;9320;50.256;19.026;2023-06-14T12:36:36;8.90;;;6.40;;
18387;SDS011;9320;50.256;19.026;2023-06-14T12:39:09;11.52;;;6.55;;
18387;SDS011;9320;50.256;19.026;2023-06-14T12:41:37;7.13;;;5.78;;
18387;SDS011;9320;50.256;19.026;2023-06-14T12:44:07;8.13;;;6.35;;
18387;SDS011;9320;50.256;19.026;2023-06-14T12:46:35;6.22;;;5.63;;
18387;SDS011;9320;50.256;19.026;2023-06-14T12:49:07;8.05;;;5.90;;
18387;SDS011;9320;50.256;19.026;2023-06-14T12:51:36;6.30;;;5.35;;
18387;SDS011;9320;50.256;19.026;2023-06-14T12:54:04;5.32;;;4.80;;
18387;SDS011;9320;50.256;19.026;2023-06-14T12:56:34;6.00;;;5.10;;
18387;SDS011;9320;50.256;19.026;2023-06-14T12:59:03;8.15;;;6.28;;
18387;SDS011;9320;50.256;19.026;2023-06-14T13:01:32;7.68;;;6.22;;
18387;SDS011;9320;50.256;19.026;2023-06-14T13:04:00;7.03;;;6.30;;
18387;SDS011;9320;50.256;19.026;2023-06-14T13:06:29;7.45;;;5.65;;
18387;SDS011;9320;50.256;19.026;2023-06-14T13:08:57;7.28;;;5.00;;
18387;SDS011;9320;50.256;19.026;2023-06-14T13:11:25;5.85;;;5.35;;
18387;SDS011;9320;50.256;19.026;2023-06-14T13:13:55;6.45;;;5.68;;
18387;SDS011;9320;50.256;19.026;2023-06-14T13:16:23;5.80;;;5.20;;
18387;SDS011;9320;50.256;19.026;2023-06-14T13:18:51;7.78;;;6.18;;
18387;SDS011;9320;50.256;19.026;2023-06-14T13:21:19;12.95;;;7.22;;
18387;SDS011;9320;50.256;19.026;2023-06-14T13:23:47;8.52;;;6.80;;
18387;SDS011;9320;50.256;19.026;2023-06-14T13:26:16;11.63;;;8.10;;
18387;SDS011;9320;50.256;19.026;2023-06-14T13:28:44;10.13;;;7.32;;
18387;SDS011;9320;50.256;19.026;2023-06-14T13:31:14;9.05;;;7.35;;
18387;SDS011;9320;50.256;19.026;2023-06-14T13:33:42;10.43;;;7.30;;
18387;SDS011;9320;50.256;19.026;2023-06-14T13:36:10;8.07;;;6.78;;
18387;SDS011;9320;50.256;19.026;2023-06-14T13:38:38;10.25;;;7.30;;
18387;SDS011;9320;50.256;19.026;2023-06-14T13:41:06;9.63;;;6.60;;
18387;SDS011;9320;50.256;19.026;2023-06-14T13:43:34;9.50;;;6.47;;
18387;SDS011;9320;50.256;19.026;2023-06-14T13:46:02;8.77;;;7.05;;
18387;SDS011;9320;50.256;19.026;2023-06-14T13:48:31;9.20;;;6.32;;
18387;SDS011;9320;50.256;19.026;2023-06-14T13:50:59;7.60;;;6.10;;
18387;SDS011;9320;50.256;19.026;2023-06-14T13:53:30;7.13;;;5.68;;
18387;SDS011;9320;50.256;19.026;2023-06-14T13:55:58;7.63;;;6.13;;
18387;SDS011;9320;50.256;19.026;2023-06-14T13:58:26;8.07;;;7.05;;
18387;SDS011;9320;50.256;19.026;2023-06-14T14:00:55;9.95;;;6.70;;
18387;SDS011;9320;50.256;19.026;2023-06-14T14:03:26;8.65;;;6.85;;
18387;SDS011;9320;50.256;19.026;2023-06-14T14:05:55;12.02;;;6.60;;
18387;SDS011;9320;50.256;19.026;2023-06-14T14:08:23;6.88;;;6.07;;
18387;SDS011;9320;50.256;19.026;2023-06-14T14:10:52;8.80;;;6.57;;
18387;SDS011;9320;50.256;19.026;2023-06-14T14:13:20;8.35;;;7.15;;
18387;SDS011;9320;50.256;19.026;2023-06-14T14:15:48;10.90;;;7.53;;
18387;SDS011;9320;50.256;19.026;2023-06-14T14:18:17;8.15;;;7.05;;
18387;SDS011;9320;50.256;19.026;2023-06-14T14:20:47;11.70;;;6.55;;
18387;SDS011;9320;50.256;19.026;2023-06-14T14:23:17;7.50;;;6.70;;
18387;SDS011;9320;50.256;19.026;2023-06-14T14:25:46;10.73;;;7.13;;
18387;SDS011;9320;50.256;19.026;2023-06-14T14:28:14;12.57;;;8.05;;
18387;SDS011;9320;50.256;19.026;2023-06-14T14:30:45;13.77;;;8.88;;
18387;SDS011;9320;50.256;19.026;2023-06-14T14:33:13;10.68;;;7.53;;
18387;SDS011;9320;50.256;19.026;2023-06-14T14:35:43;10.50;;;7.93;;
18387;SDS011;9320;50.256;19.026;2023-06-14T14:38:12;9.02;;;7.38;;
18387;SDS011;9320;50.256;19.026;2023-06-14T14:40:43;11.35;;;6.70;;
18387;SDS011;9320;50.256;19.026;2023-06-14T14:43:12;9.18;;;7.35;;
18387;SDS011;9320;50.256;19.026;2023-06-14T14:45:40;9.23;;;7.15;;
18387;SDS011;9320;50.256;19.026;2023-06-14T14:48:08;8.00;;;6.88;;
18387;SDS011;9320;50.256;19.026;2023-06-14T14:50:36;8.70;;;6.50;;